Terminal Aerodrome Forecast
Issued by NWS

Home | Current Version | Previous Version | Text Only | Print | Product List | Glossary On
Versions: 1 2 3 4 5 6 7 8 9 10 11 12 13 14 15 16 17 18 19 20 21 22 23
255
FTUS41 KPBZ 140237 AAA
TAFLBE
TAF AMD
KLBE 140237Z 1403/1424 15006KT 1SM -SN OVC004
     FM140500 21008KT 2SM -SN OVC008
     FM140900 25010G20KT 3SM -SN OVC020
     FM141100 29010G20KT P6SM VCSH OVC015
     FM141500 30008G16KT P6SM BKN025
     FM142000 32008KT P6SM BKN035=

USA.gov is the U.S. government's official web portal to all federal, state and local government web resources and services.